Time;durP1;ratioP1;P1;durP2;ratioP2;P2;SDS_P1;SDS_P2;PMS_P1;PMS_P2;Temp;Humidity;BMP_temperature;BMP_pressure;BME280_temperature;BME280_humidity;BME280_pressure;Samples;Min_cycle;Max_cycle;Signal;HPM_P1;HPM_P2
2023/08/20 00:03:41;;;;;;;13.00;9.40;;;;;;;24.36;66.61;99347.48;223495;182;138643;-63
2023/08/20 00:08:44;;;;;;;14.60;9.70;;;;;;;24.25;67.47;99341.27;223614;182;147499;-60
2023/08/20 00:13:47;;;;;;;12.50;9.60;;;;;;;24.18;68.15;99344.55;223425;182;141877;-63
2023/08/20 00:18:51;;;;;;;12.80;10.20;;;;;;;24.15;68.47;99336.84;223450;181;138187;-63
2023/08/20 00:23:55;;;;;;;15.40;11.00;;;;;;;24.11;68.84;99333.86;223440;182;148093;-63
2023/08/20 00:29:00;;;;;;;13.60;11.40;;;;;;;24.04;69.22;99338.75;223311;182;138607;-64
2023/08/20 00:34:03;;;;;;;13.90;11.30;;;;;;;23.96;69.53;99338.77;223385;181;138586;-63
2023/08/20 00:39:09;;;;;;;11.90;10.60;;;;;;;23.91;69.59;99338.85;223363;181;147734;-61
2023/08/20 00:44:13;;;;;;;11.30;9.70;;;;;;;23.83;69.81;99336.64;223322;182;140196;-60
2023/08/20 00:49:17;;;;;;;15.80;9.90;;;;;;;23.76;70.10;99330.35;223520;181;140159;-61
2023/08/20 00:54:22;;;;;;;13.20;9.60;;;;;;;23.78;70.37;99332.21;223438;182;147689;-61
2023/08/20 00:59:26;;;;;;;11.00;9.20;;;;;;;23.78;70.23;99329.38;223300;181;141508;-63
2023/08/20 01:04:30;;;;;;;11.80;9.40;;;;;;;23.74;70.35;99327.60;223452;181;138622;-63
2023/08/20 01:09:53;;;;;;;10.70;9.60;;;;;;;23.72;70.43;99325.73;223534;182;147664;-62
2023/08/20 01:14:56;;;;;;;12.20;10.10;;;;;;;23.64;70.68;99329.12;223504;182;141154;-62
2023/08/20 01:19:59;;;;;;;15.40;10.40;;;;;;;23.58;70.97;99329.47;223489;182;137216;-62
2023/08/20 01:25:08;;;;;;;11.80;10.10;;;;;;;23.57;70.99;99326.84;223548;182;148580;-60
2023/08/20 01:30:13;;;;;;;13.50;10.10;;;;;;;23.60;71.07;99330.88;223299;182;139606;-61
2023/08/20 01:35:17;;;;;;;15.40;10.90;;;;;;;23.60;71.08;99330.98;223280;182;138225;-61
2023/08/20 01:40:21;;;;;;;13.80;10.50;;;;;;;23.59;71.15;99327.70;223402;181;147597;-62
2023/08/20 01:45:24;;;;;;;16.90;10.60;;;;;;;23.54;71.33;99332.21;223476;182;140856;-65
2023/08/20 01:50:27;;;;;;;12.00;10.70;;;;;;;23.48;71.46;99330.92;223504;181;138390;-64
2023/08/20 01:55:30;;;;;;;13.00;10.30;;;;;;;23.41;71.48;99330.42;223486;181;147937;-63
2023/08/20 02:00:35;;;;;;;11.90;9.60;;;;;;;23.37;71.85;99332.33;223532;182;139608;-64
2023/08/20 02:05:38;;;;;;;11.60;9.90;;;;;;;23.39;71.85;99336.83;223177;183;138494;-62
2023/08/20 02:10:44;;;;;;;11.40;10.10;;;;;;;23.37;72.09;99339.92;223515;181;147902;-62
2023/08/20 02:15:59;;;;;;;12.70;9.90;;;;;;;23.30;72.17;99335.74;223533;181;139020;-63
2023/08/20 02:21:03;;;;;;;13.90;10.10;;;;;;;23.19;72.46;99343.31;223564;182;136735;-62
2023/08/20 02:26:06;;;;;;;12.00;10.20;;;;;;;23.14;72.62;99342.94;223523;182;155592;-62
2023/08/20 02:31:10;;;;;;;11.70;9.30;;;;;;;23.14;72.75;99343.31;223538;182;138987;-60
2023/08/20 02:36:14;;;;;;;12.70;9.60;;;;;;;23.12;72.85;99342.84;223309;181;138107;-63
2023/08/20 02:41:17;;;;;;;13.40;10.20;;;;;;;23.09;72.83;99340.98;223532;181;150083;-63
2023/08/20 02:46:21;;;;;;;13.60;10.20;;;;;;;23.08;72.87;99338.84;223522;182;143068;-63
2023/08/20 02:51:24;;;;;;;15.50;10.00;;;;;;;23.05;72.86;99339.23;223512;183;136814;-61
2023/08/20 02:56:28;;;;;;;11.70;10.60;;;;;;;22.99;73.06;99338.11;223463;181;147256;-63
2023/08/20 03:01:32;;;;;;;11.70;9.40;;;;;;;22.91;73.19;99340.74;223485;182;233302;-62
2023/08/20 03:06:35;;;;;;;15.60;10.00;;;;;;;22.87;73.47;99342.66;223586;182;138737;-61
2023/08/20 03:11:38;;;;;;;13.30;10.10;;;;;;;22.87;73.55;99347.55;223525;181;148041;-64
2023/08/20 03:16:41;;;;;;;14.60;9.80;;;;;;;22.88;73.66;99350.60;223482;182;140445;-62
2023/08/20 03:21:44;;;;;;;10.80;9.70;;;;;;;22.89;73.72;99346.00;223477;181;136862;-63
2023/08/20 03:26:48;;;;;;;17.20;11.50;;;;;;;22.87;73.79;99352.22;223446;181;148745;-61
2023/08/20 03:31:51;;;;;;;11.50;9.90;;;;;;;22.82;73.83;99356.22;223420;182;140987;-62
2023/08/20 03:36:57;;;;;;;14.00;9.90;;;;;;;22.79;73.83;99361.08;223395;182;138513;-63
2023/08/20 03:42:00;;;;;;;11.90;10.00;;;;;;;22.82;73.97;99365.61;223466;182;149227;-62
2023/08/20 03:47:03;;;;;;;14.10;10.90;;;;;;;22.81;74.02;99368.05;223300;183;140361;-62
2023/08/20 03:52:10;;;;;;;11.10;9.90;;;;;;;22.78;74.00;99366.73;223438;181;138011;-63
2023/08/20 03:57:13;;;;;;;14.90;10.00;;;;;;;22.76;74.14;99371.67;223520;182;149928;-62
2023/08/20 04:02:18;;;;;;;13.30;10.20;;;;;;;22.70;74.38;99376.30;223473;181;140280;-61
2023/08/20 04:07:23;;;;;;;10.90;9.70;;;;;;;22.66;74.47;99378.94;223477;182;139758;-60
2023/08/20 04:12:26;;;;;;;13.90;10.50;;;;;;;22.69;74.72;99385.42;223448;182;147578;-62
2023/08/20 04:17:32;;;;;;;12.50;11.10;;;;;;;22.71;74.70;99382.95;223534;182;138329;-63
2023/08/20 04:22:37;;;;;;;12.60;10.70;;;;;;;22.71;74.66;99385.63;223478;182;137953;-62
2023/08/20 04:27:40;;;;;;;18.90;10.80;;;;;;;22.70;74.67;99385.19;223551;182;147620;-61
2023/08/20 04:32:43;;;;;;;12.60;9.80;;;;;;;22.64;74.74;99385.98;223394;182;139622;-58
2023/08/20 04:37:47;;;;;;;12.50;10.00;;;;;;;22.62;74.94;99385.55;223425;182;138505;-62
2023/08/20 04:42:51;;;;;;;11.90;10.60;;;;;;;22.62;75.19;99386.54;223452;182;147245;-61
2023/08/20 04:47:54;;;;;;;12.30;11.00;;;;;;;22.68;75.08;99389.15;223359;182;139054;-59
2023/08/20 04:53:00;;;;;;;13.40;11.00;;;;;;;22.75;75.14;99392.60;223527;182;138521;-63
2023/08/20 04:58:04;;;;;;;17.60;11.00;;;;;;;22.80;75.18;99392.27;223381;181;147562;-62
2023/08/20 05:03:09;;;;;;;10.70;9.10;;;;;;;22.81;75.08;99393.02;223496;182;138775;-63
2023/08/20 05:08:13;;;;;;;11.60;9.60;;;;;;;22.85;74.96;99389.20;223548;183;138330;-63
2023/08/20 05:13:20;;;;;;;17.80;10.30;;;;;;;22.91;74.86;99388.73;223464;181;149249;-61
2023/08/20 05:18:26;;;;;;;13.50;10.40;;;;;;;23.00;74.58;99391.38;223464;181;138667;-60
2023/08/20 05:23:30;;;;;;;14.40;10.60;;;;;;;23.08;74.43;99391.10;223471;182;137905;-62
2023/08/20 05:28:34;;;;;;;11.80;10.40;;;;;;;23.14;74.15;99393.85;223550;182;147584;-62
2023/08/20 05:33:38;;;;;;;13.80;9.30;;;;;;;23.20;74.06;99394.43;223524;182;138967;-60
2023/08/20 05:38:44;;;;;;;11.20;9.70;;;;;;;23.27;74.12;99391.94;223454;182;137811;-63
2023/08/20 05:43:48;;;;;;;14.80;10.70;;;;;;;23.36;73.97;99396.18;223476;182;148293;-59
2023/08/20 05:48:51;;;;;;;12.00;10.70;;;;;;;23.52;73.54;99397.90;223563;182;140253;-61
2023/08/20 05:53:55;;;;;;;12.20;10.60;;;;;;;23.63;73.32;99396.77;223553;182;138774;-61
2023/08/20 05:58:58;;;;;;;14.80;10.20;;;;;;;23.70;73.14;99396.60;223539;182;148661;-63
2023/08/20 06:04:03;;;;;;;10.70;9.30;;;;;;;23.79;73.09;99406.11;223513;182;139809;-64
2023/08/20 06:09:06;;;;;;;10.10;8.90;;;;;;;23.87;72.63;99411.95;223490;182;138522;-61
2023/08/20 06:14:12;;;;;;;10.40;9.30;;;;;;;23.93;72.28;99412.94;223553;181;147522;-64
2023/08/20 06:19:15;;;;;;;12.80;9.80;;;;;;;24.03;72.04;99417.55;223437;182;139657;-64
2023/08/20 06:24:18;;;;;;;13.10;10.30;;;;;;;24.15;71.70;99416.94;223414;182;138153;-63
2023/08/20 06:29:21;;;;;;;11.50;10.30;;;;;;;24.25;71.41;99415.73;223406;181;148729;-60
2023/08/20 06:34:25;;;;;;;12.10;10.10;;;;;;;24.35;71.02;99415.02;223360;181;139068;-62
2023/08/20 06:39:28;;;;;;;11.30;9.50;;;;;;;24.41;70.82;99419.82;223571;181;138220;-64
2023/08/20 06:44:32;;;;;;;14.00;9.50;;;;;;;24.48;70.55;99418.66;223381;182;148753;-63
2023/08/20 06:49:35;;;;;;;13.20;9.70;;;;;;;24.65;70.63;99426.69;223415;182;139235;-60
2023/08/20 06:54:38;;;;;;;10.90;9.80;;;;;;;24.88;70.23;99428.97;223507;181;137522;-63
2023/08/20 06:59:43;;;;;;;14.10;10.60;;;;;;;24.99;69.31;99432.73;223415;181;148739;-60
2023/08/20 07:04:46;;;;;;;;;;;;;;;25.08;69.19;99430.06;223520;181;138881;-64
2023/08/20 07:09:50;;;;;;;12.70;9.70;;;;;;;25.16;68.33;99426.27;223664;183;131224;-65
2023/08/20 07:14:53;;;;;;;13.10;10.60;;;;;;;25.21;68.01;99427.66;223390;181;148457;-63
2023/08/20 07:19:58;;;;;;;13.10;10.10;;;;;;;25.26;67.50;99427.05;223323;181;141029;-65
2023/08/20 07:25:02;;;;;;;10.40;9.30;;;;;;;25.34;67.36;99429.92;223499;182;140977;-61
2023/08/20 07:30:06;;;;;;;11.30;10.00;;;;;;;25.47;67.18;99429.28;223408;181;147891;-64
2023/08/20 07:35:10;;;;;;;11.70;10.50;;;;;;;25.62;67.03;99430.58;223380;182;140368;-64
2023/08/20 07:40:14;;;;;;;11.70;10.60;;;;;;;25.73;66.29;99430.55;223496;182;137938;-62
2023/08/20 07:45:18;;;;;;;13.70;11.20;;;;;;;25.84;66.31;99427.08;223524;181;148759;-60
2023/08/20 07:50:22;;;;;;;13.00;11.10;;;;;;;25.94;65.54;99428.26;223491;181;139318;-62
2023/08/20 07:55:25;;;;;;;12.10;9.70;;;;;;;26.04;65.45;99427.70;223463;181;138428;-64
2023/08/20 08:00:28;;;;;;;11.30;10.10;;;;;;;26.19;65.67;99427.30;223470;182;147911;-62
2023/08/20 08:05:31;;;;;;;12.70;10.40;;;;;;;26.38;65.11;99430.45;223434;183;139383;-64
2023/08/20 08:10:35;;;;;;;13.20;11.20;;;;;;;26.50;63.92;99430.61;223416;182;137389;-63
2023/08/20 08:15:39;;;;;;;16.80;11.10;;;;;;;26.61;63.96;99427.81;223574;182;147333;-62
2023/08/20 08:26:22;;;;;;;11.90;10.40;;;;;;;26.85;62.78;99429.15;221551;194;677366;-60
2023/08/20 08:31:26;;;;;;;13.50;10.70;;;;;;;26.90;62.50;99424.89;223195;185;136917;-60
2023/08/20 08:36:29;;;;;;;12.80;10.90;;;;;;;27.00;62.59;99423.49;223059;184;143976;-61
2023/08/20 08:41:35;;;;;;;11.50;10.20;;;;;;;27.08;61.29;99419.70;223111;185;139549;-58
2023/08/20 08:46:41;;;;;;;12.00;10.80;;;;;;;27.19;61.08;99423.58;223093;184;136877;-60
2023/08/20 08:51:46;;;;;;;13.40;10.90;;;;;;;27.30;61.02;99420.59;223021;185;144900;-61
2023/08/20 08:56:50;;;;;;;11.90;10.10;;;;;;;27.42;60.34;99424.42;222995;185;139091;-60
2023/08/20 09:01:54;;;;;;;11.00;9.90;;;;;;;27.51;60.00;99423.38;223061;185;138314;-59
2023/08/20 09:06:57;;;;;;;11.60;10.40;;;;;;;27.61;58.30;99421.84;223036;184;144167;-61
2023/08/20 09:12:00;;;;;;;12.00;10.80;;;;;;;27.74;58.32;99423.30;223039;185;141420;-61
2023/08/20 09:17:04;;;;;;;10.80;9.80;;;;;;;27.89;59.02;99421.86;223204;184;139486;-63
2023/08/20 09:22:07;;;;;;;13.30;10.50;;;;;;;28.05;58.85;99414.53;222983;184;146887;-60
2023/08/20 09:27:12;;;;;;;12.90;11.10;;;;;;;28.14;58.52;99414.27;223010;185;140991;-59
2023/08/20 09:32:19;;;;;;;11.10;10.00;;;;;;;28.26;58.20;99410.35;223042;185;137272;-62
2023/08/20 09:37:24;;;;;;;12.40;9.80;;;;;;;28.41;58.28;99409.51;223022;185;147423;-60
2023/08/20 09:42:32;;;;;;;10.90;9.90;;;;;;;28.59;56.43;99411.38;222924;185;140366;-58
2023/08/20 09:47:38;;;;;;;14.90;9.90;;;;;;;28.74;55.96;99414.80;222911;185;137656;-56
2023/08/20 09:52:57;;;;;;;11.80;9.10;;;;;;;28.86;55.34;99405.39;223018;184;145738;-59
2023/08/20 09:58:03;;;;;;;12.30;10.70;;;;;;;28.95;53.67;99404.22;222938;184;140097;-59
2023/08/20 10:03:07;;;;;;;10.30;8.90;;;;;;;29.08;53.39;99406.36;222857;185;137944;-60
2023/08/20 10:08:10;;;;;;;12.60;9.70;;;;;;;29.25;52.54;99399.06;222981;184;146492;-57
2023/08/20 10:13:15;;;;;;;10.80;9.60;;;;;;;29.46;52.74;99395.01;223019;184;140178;-59
2023/08/20 10:18:20;;;;;;;11.10;10.10;;;;;;;29.52;52.27;99387.27;222970;184;137245;-58
2023/08/20 10:23:23;;;;;;;10.30;9.10;;;;;;;29.49;52.22;99388.14;223120;184;148388;-58
2023/08/20 10:28:26;;;;;;;12.80;9.60;;;;;;;29.46;51.76;99390.80;223035;184;140782;-59
2023/08/20 10:33:30;;;;;;;10.60;9.20;;;;;;;29.60;51.69;99383.07;223064;184;136897;-59
2023/08/20 10:38:36;;;;;;;9.40;8.40;;;;;;;29.65;51.38;99386.70;223161;183;145445;-58
2023/08/20 10:43:46;;;;;;;15.00;11.00;;;;;;;29.58;51.19;99381.28;223018;184;138816;-61
2023/08/20 10:48:54;;;;;;;10.80;9.70;;;;;;;29.48;51.27;99375.64;223019;184;139639;-58
2023/08/20 10:54:00;;;;;;;11.90;9.90;;;;;;;29.58;52.26;99374.36;223135;184;145909;-60
2023/08/20 10:59:09;;;;;;;9.60;8.70;;;;;;;29.56;51.86;99371.19;223092;184;139062;-57
2023/08/20 11:04:16;;;;;;;10.40;9.10;;;;;;;29.48;51.19;99369.11;222974;183;136644;-61
2023/08/20 11:09:24;;;;;;;10.60;9.50;;;;;;;29.72;52.77;99364.55;223070;184;147059;-56
2023/08/20 11:14:27;;;;;;;11.40;10.20;;;;;;;29.92;52.55;99359.01;222927;184;139154;-58
2023/08/20 11:19:31;;;;;;;11.10;10.00;;;;;;;30.11;53.38;99356.83;223063;184;137607;-56
2023/08/20 11:24:38;;;;;;;12.60;11.00;;;;;;;30.40;53.23;99357.64;223097;184;148392;-61
2023/08/20 11:29:43;;;;;;;12.70;10.90;;;;;;;30.58;52.21;99362.64;223122;184;138609;-61
2023/08/20 11:34:46;;;;;;;;;;;;;;;30.58;51.51;99356.55;223008;184;137789;-62
2023/08/20 11:39:49;;;;;;;12.70;11.30;;;;;;;30.80;52.21;99355.27;223071;183;145920;-63
2023/08/20 11:44:55;;;;;;;14.90;11.10;;;;;;;30.88;51.68;99357.52;223041;184;138760;-60
2023/08/20 11:50:05;;;;;;;14.30;12.20;;;;;;;30.73;51.62;99360.77;223110;184;137680;-61
2023/08/20 11:55:09;;;;;;;12.70;11.50;;;;;;;30.48;51.78;99357.82;223099;184;146037;-62
2023/08/20 12:00:24;;;;;;;11.80;10.60;;;;;;;30.27;51.00;99351.59;222992;184;139914;-62
2023/08/20 12:05:28;;;;;;;12.00;10.80;;;;;;;30.17;50.30;99348.92;223109;184;138764;-62
2023/08/20 12:10:33;;;;;;;12.60;11.30;;;;;;;30.46;50.85;99348.90;223167;184;146430;-62
2023/08/20 12:15:36;;;;;;;13.00;10.90;;;;;;;30.54;50.83;99349.09;223137;184;139069;-59
2023/08/20 12:20:39;;;;;;;12.50;11.20;;;;;;;30.48;51.16;99345.90;223280;184;138561;-61
2023/08/20 12:25:42;;;;;;;11.70;10.50;;;;;;;30.83;51.81;99347.72;223185;184;145534;-61
2023/08/20 12:30:46;;;;;;;10.20;9.20;;;;;;;31.10;51.00;99339.33;223308;183;139024;-64
2023/08/20 12:35:49;;;;;;;10.20;8.90;;;;;;;31.22;50.07;99335.91;223354;183;136680;-62
2023/08/20 12:40:55;;;;;;;11.60;9.20;;;;;;;31.15;50.12;99332.83;223345;182;146274;-60
2023/08/20 12:45:58;;;;;;;10.40;9.40;;;;;;;31.15;49.78;99332.19;223407;183;138917;-62
2023/08/20 12:51:03;;;;;;;12.50;10.90;;;;;;;31.40;50.10;99323.30;223312;182;138140;-60
2023/08/20 12:56:06;;;;;;;10.30;9.10;;;;;;;31.23;49.02;99322.58;223349;182;146307;-60
2023/08/20 13:01:09;;;;;;;11.10;10.10;;;;;;;31.04;48.62;99327.96;223265;182;138916;-62
2023/08/20 13:06:16;;;;;;;11.00;8.70;;;;;;;31.11;48.74;99321.85;223367;182;138213;-60
2023/08/20 13:11:20;;;;;;;10.40;8.20;;;;;;;31.40;46.91;99316.86;223375;182;145593;-61
2023/08/20 13:16:23;;;;;;;11.40;8.10;;;;;;;31.73;46.60;99306.42;223368;183;139057;-60
2023/08/20 13:21:26;;;;;;;9.70;8.70;;;;;;;32.12;44.31;99313.00;223411;182;136922;-59
2023/08/20 13:26:29;;;;;;;10.60;8.10;;;;;;;32.51;44.18;99300.83;223396;182;145388;-62
2023/08/20 13:31:35;;;;;;;15.10;8.10;;;;;;;32.86;42.34;99299.86;223236;182;139556;-61
2023/08/20 13:36:39;;;;;;;9.00;8.10;;;;;;;32.81;41.13;99303.66;223416;182;139922;-63
2023/08/20 13:41:42;;;;;;;10.10;9.10;;;;;;;32.57;41.47;99305.15;223482;183;146807;-63
2023/08/20 13:46:45;;;;;;;8.90;8.10;;;;;;;32.88;41.58;99301.45;223476;182;138639;-61
2023/08/20 13:51:48;;;;;;;8.70;7.80;;;;;;;33.20;40.87;99291.06;223546;182;136509;-62
2023/08/20 13:56:52;;;;;;;8.70;7.80;;;;;;;33.47;41.14;99280.45;223553;182;146960;-61
2023/08/20 14:01:55;;;;;;;7.90;7.10;;;;;;;33.73;39.97;99279.27;223377;183;139020;-63
2023/08/20 14:07:00;;;;;;;10.70;6.70;;;;;;;33.92;38.85;99281.98;223434;183;137431;-61
2023/08/20 14:12:08;;;;;;;8.60;6.30;;;;;;;33.99;38.15;99282.86;223458;182;145512;-63
2023/08/20 14:17:32;;;;;;;7.00;5.90;;;;;;;34.05;36.97;99284.67;223371;182;140553;-62
2023/08/20 14:22:37;;;;;;;7.50;5.90;;;;;;;34.06;37.10;99281.92;223397;182;138302;-59
2023/08/20 14:27:40;;;;;;;7.60;6.60;;;;;;;34.08;37.52;99280.98;223438;183;146426;-59
2023/08/20 14:32:44;;;;;;;6.70;5.60;;;;;;;34.07;37.15;99277.27;223314;182;138641;-63
2023/08/20 14:37:48;;;;;;;6.20;5.30;;;;;;;33.94;36.46;99272.41;223380;182;137574;-62
2023/08/20 14:42:51;;;;;;;9.90;5.30;;;;;;;33.80;36.46;99270.54;223391;183;146421;-62
2023/08/20 14:47:54;;;;;;;5.70;4.90;;;;;;;33.50;36.16;99272.09;223464;182;141597;-60
2023/08/20 14:52:59;;;;;;;4.90;4.50;;;;;;;33.18;36.25;99271.70;223470;182;137899;-61
2023/08/20 14:58:04;;;;;;;5.70;5.10;;;;;;;32.93;37.04;99274.14;223381;182;146380;-62
2023/08/20 15:03:11;;;;;;;5.70;4.80;;;;;;;32.78;37.13;99269.48;223431;183;139013;-62
2023/08/20 15:08:15;;;;;;;5.00;4.50;;;;;;;32.61;37.70;99266.23;223531;182;138867;-61
2023/08/20 15:13:18;;;;;;;6.30;5.60;;;;;;;32.40;37.99;99272.30;223447;183;145491;-62
2023/08/20 15:18:21;;;;;;;6.10;5.50;;;;;;;31.96;38.68;99270.45;223475;182;140051;-62
2023/08/20 15:23:26;;;;;;;7.40;4.90;;;;;;;31.61;39.02;99273.96;223372;182;136807;-61
2023/08/20 15:28:29;;;;;;;5.80;4.90;;;;;;;31.48;39.18;99271.68;223421;184;145938;-62
2023/08/20 15:33:33;;;;;;;7.00;5.10;;;;;;;31.42;39.37;99270.46;223449;182;138987;-61
2023/08/20 15:38:37;;;;;;;6.20;5.60;;;;;;;31.41;39.80;99269.83;223354;182;136590;-63
2023/08/20 15:43:41;;;;;;;5.90;5.30;;;;;;;31.29;40.27;99268.47;223215;182;147099;-61
2023/08/20 15:48:44;;;;;;;7.90;5.40;;;;;;;31.16;40.70;99273.93;223450;182;139928;-60
2023/08/20 15:53:48;;;;;;;6.20;5.30;;;;;;;31.02;40.94;99271.48;223529;182;137122;-61
2023/08/20 15:58:51;;;;;;;6.20;5.40;;;;;;;30.90;41.15;99267.27;223509;182;146816;-62
2023/08/20 16:03:54;;;;;;;6.90;6.00;;;;;;;30.81;41.48;99272.48;223448;182;140522;-62
2023/08/20 16:08:58;;;;;;;6.40;5.50;;;;;;;30.73;41.40;99274.11;223433;182;136906;-61
2023/08/20 16:14:01;;;;;;;7.00;5.90;;;;;;;30.64;41.67;99277.70;223337;182;146380;-60
2023/08/20 16:19:04;;;;;;;6.50;5.70;;;;;;;30.51;41.83;99282.66;223478;182;140413;-61
2023/08/20 16:24:11;;;;;;;6.30;5.70;;;;;;;30.43;42.37;99281.57;223329;182;136466;-62
2023/08/20 16:29:14;;;;;;;6.50;5.80;;;;;;;30.36;42.52;99290.73;223431;182;146097;-61
2023/08/20 16:34:17;;;;;;;8.10;5.90;;;;;;;30.28;42.81;99291.92;223275;182;140242;-65
2023/08/20 16:39:21;;;;;;;6.50;5.90;;;;;;;30.22;43.28;99293.44;223472;182;138205;-60
2023/08/20 16:44:24;;;;;;;7.00;6.20;;;;;;;30.14;43.47;99293.34;223464;182;147523;-62
2023/08/20 16:49:27;;;;;;;7.60;6.60;;;;;;;30.08;43.86;99296.01;223422;182;141344;-61
2023/08/20 16:54:31;;;;;;;8.50;6.70;;;;;;;30.01;44.35;99294.26;223441;182;138038;-60
2023/08/20 16:59:34;;;;;;;9.10;6.40;;;;;;;29.91;44.97;99297.14;223508;179;148177;-60
2023/08/20 17:04:37;;;;;;;8.30;6.80;;;;;;;29.82;45.62;99306.80;223489;182;139028;-60
2023/08/20 17:09:40;;;;;;;11.20;7.30;;;;;;;29.72;46.12;99306.21;223462;183;137039;-61
2023/08/20 17:14:44;;;;;;;9.10;6.70;;;;;;;29.60;46.47;99305.41;223456;182;147741;-61
2023/08/20 17:19:48;;;;;;;8.80;7.00;;;;;;;29.52;46.80;99301.84;223376;183;141034;-59
2023/08/20 17:24:51;;;;;;;8.20;7.40;;;;;;;29.43;46.88;99300.33;223422;182;136727;-61
2023/08/20 17:29:55;;;;;;;13.90;8.30;;;;;;;29.34;47.33;99302.81;223372;182;147657;-60
2023/08/20 17:34:59;;;;;;;11.50;8.60;;;;;;;29.23;47.49;99310.10;223422;182;138601;-62
2023/08/20 17:40:03;;;;;;;13.70;8.40;;;;;;;29.14;47.80;99313.55;223379;182;137757;-61
2023/08/20 17:45:08;;;;;;;;;;;;;;;29.03;48.20;99320.36;223358;183;148020;-61
2023/08/20 17:50:13;;;;;;;10.90;7.50;;;;;;;28.92;48.41;99325.36;223402;183;138977;-60
2023/08/20 17:55:16;;;;;;;11.50;7.70;;;;;;;28.82;48.59;99332.38;223361;182;138365;-62
2023/08/20 18:00:20;;;;;;;10.40;7.80;;;;;;;28.75;48.73;99341.63;223302;182;149163;-58
2023/08/20 18:05:23;;;;;;;15.10;9.00;;;;;;;28.67;49.19;99345.71;223429;182;140234;-59
2023/08/20 18:10:27;;;;;;;12.60;10.20;;;;;;;28.55;50.06;99349.04;223349;182;138537;-60
2023/08/20 18:15:31;;;;;;;11.60;9.40;;;;;;;28.44;50.04;99355.05;223344;182;147562;-62
2023/08/20 18:20:34;;;;;;;;;;;;;;;28.40;50.03;99358.08;223379;182;138951;-60
2023/08/20 18:25:38;;;;;;;10.30;8.50;;;;;;;28.35;50.07;99365.34;223358;182;131947;-60
2023/08/20 18:30:50;;;;;;;11.80;8.20;;;;;;;28.31;50.16;99370.67;223238;182;147307;-58
2023/08/20 18:36:00;;;;;;;10.10;7.80;;;;;;;28.24;50.41;99375.89;223217;182;139666;-60
2023/08/20 18:41:07;;;;;;;11.20;8.00;;;;;;;28.16;50.54;99382.15;223280;182;137161;-58
2023/08/20 18:46:10;;;;;;;21.80;9.40;;;;;;;28.07;50.78;99386.97;223325;182;147925;-59
2023/08/20 18:51:17;;;;;;;14.80;8.70;;;;;;;28.03;50.88;99387.12;223423;183;140552;-59
2023/08/20 18:56:20;;;;;;;13.80;8.70;;;;;;;27.97;51.10;99392.77;223459;182;139551;-60
2023/08/20 19:01:24;;;;;;;12.30;7.90;;;;;;;27.97;50.85;99393.30;223361;181;148310;-59
2023/08/20 19:06:27;;;;;;;11.60;8.60;;;;;;;27.94;50.83;99391.89;223357;182;139089;-58
2023/08/20 19:11:31;;;;;;;9.20;7.60;;;;;;;27.91;51.07;99399.23;223394;182;269260;-60
2023/08/20 19:16:34;;;;;;;9.10;8.20;;;;;;;27.90;51.04;99404.48;223375;182;147435;-59
2023/08/20 19:21:37;;;;;;;8.50;7.70;;;;;;;27.84;51.25;99409.41;223433;183;138948;-58
2023/08/20 19:26:40;;;;;;;10.30;7.90;;;;;;;27.75;51.32;99417.10;223323;182;137120;-60
2023/08/20 19:31:44;;;;;;;9.80;7.60;;;;;;;27.65;51.47;99416.16;223308;182;148199;-59
2023/08/20 19:36:47;;;;;;;9.60;8.50;;;;;;;27.55;51.62;99416.73;223322;183;138874;-57
2023/08/20 19:41:50;;;;;;;10.00;8.40;;;;;;;27.46;51.74;99420.13;223369;182;137001;-60
2023/08/20 19:46:54;;;;;;;9.90;8.20;;;;;;;27.35;52.08;99420.90;223402;183;149880;-59
2023/08/20 19:51:57;;;;;;;9.40;8.30;;;;;;;27.28;52.38;99421.74;223396;182;139434;-60
2023/08/20 19:57:01;;;;;;;9.20;8.00;;;;;;;27.23;52.46;99433.23;223433;182;138472;-60
2023/08/20 20:02:04;;;;;;;9.20;8.10;;;;;;;27.12;52.70;99438.65;223389;182;148297;-61
2023/08/20 20:07:07;;;;;;;9.00;8.10;;;;;;;26.99;53.06;99440.80;223417;182;139036;-62
2023/08/20 20:12:24;;;;;;;12.10;9.40;;;;;;;26.84;53.73;99439.45;223291;183;137590;-60
2023/08/20 20:17:27;;;;;;;9.90;8.80;;;;;;;26.72;54.97;99444.69;223486;182;148204;-63
2023/08/20 20:22:30;;;;;;;13.90;8.90;;;;;;;26.58;56.06;99449.05;223379;182;138833;-62
2023/08/20 20:27:34;;;;;;;10.20;9.20;;;;;;;26.46;56.78;99454.87;223522;183;136850;-60
2023/08/20 20:32:38;;;;;;;13.30;9.40;;;;;;;26.50;57.84;99456.77;223431;182;150334;-60
2023/08/20 20:37:45;;;;;;;9.20;8.30;;;;;;;26.53;58.00;99453.14;223452;181;139441;-62
2023/08/20 20:42:49;;;;;;;14.20;10.10;;;;;;;26.47;58.23;99450.63;223452;183;137971;-61
2023/08/20 20:47:53;;;;;;;10.90;9.30;;;;;;;26.29;58.53;99453.95;223393;182;149024;-60
2023/08/20 20:52:56;;;;;;;12.40;9.80;;;;;;;26.08;59.24;99456.63;223386;182;138454;-64
2023/08/20 20:58:00;;;;;;;15.40;9.60;;;;;;;25.92;59.49;99460.52;223505;182;138592;-59
2023/08/20 21:03:04;;;;;;;11.80;9.60;;;;;;;25.85;59.04;99461.71;223342;182;150068;-61
2023/08/20 21:08:08;;;;;;;13.80;9.30;;;;;;;25.86;59.27;99463.36;223499;182;141392;-61
2023/08/20 21:13:13;;;;;;;13.70;9.50;;;;;;;25.75;59.79;99458.30;223421;182;137418;-61
2023/08/20 21:18:17;;;;;;;10.00;9.00;;;;;;;25.65;60.39;99459.86;223381;182;147763;-61
2023/08/20 21:26:05;;;;;;;11.70;9.70;;;;;;;25.52;60.56;99463.95;220195;193;2687458;-60
2023/08/20 21:31:08;;;;;;;12.60;10.00;;;;;;;25.40;60.94;99470.70;222763;186;137126;-61
2023/08/20 21:36:11;;;;;;;13.90;10.10;;;;;;;25.31;61.31;99465.20;222832;187;143699;-62
2023/08/20 21:41:15;;;;;;;15.80;10.40;;;;;;;25.22;61.72;99470.15;223264;183;138875;-63
2023/08/20 21:46:18;;;;;;;14.40;10.50;;;;;;;25.15;62.01;99469.98;223360;183;137208;-61
2023/08/20 21:51:22;;;;;;;14.30;9.60;;;;;;;25.06;62.48;99477.86;223342;183;144450;-60
2023/08/20 21:56:25;;;;;;;14.60;9.10;;;;;;;24.96;62.91;99480.88;223260;183;138875;-62
2023/08/20 22:01:29;;;;;;;13.80;9.10;;;;;;;24.91;63.07;99482.29;223348;183;137834;-60
2023/08/20 22:06:32;;;;;;;11.30;9.90;;;;;;;24.90;63.57;99486.63;223247;184;143965;-62
2023/08/20 22:11:35;;;;;;;10.60;9.50;;;;;;;24.90;63.82;99488.30;223319;184;139177;-62
2023/08/20 22:16:39;;;;;;;11.40;9.30;;;;;;;24.95;63.27;99489.63;223197;184;137229;-61
2023/08/20 22:21:51;;;;;;;10.90;9.80;;;;;;;24.96;63.60;99490.19;223371;183;146810;-61
2023/08/20 22:26:55;;;;;;;11.80;10.10;;;;;;;24.95;62.77;99491.64;223107;184;139083;-62
2023/08/20 22:31:58;;;;;;;16.00;10.70;;;;;;;25.02;62.10;99494.70;223264;183;136995;-61
2023/08/20 22:37:03;;;;;;;11.40;10.20;;;;;;;25.06;62.24;99498.94;223549;182;147503;-63
2023/08/20 22:42:06;;;;;;;11.40;10.20;;;;;;;24.99;62.54;99502.79;223387;182;138641;-61
2023/08/20 22:47:10;;;;;;;12.50;11.20;;;;;;;24.96;62.56;99506.10;223570;182;137564;-64
2023/08/20 22:52:13;;;;;;;13.20;11.80;;;;;;;24.96;62.22;99507.36;223578;183;146899;-59
2023/08/20 22:57:16;;;;;;;14.60;11.70;;;;;;;24.96;61.97;99506.44;223554;183;139073;-62
2023/08/20 23:02:20;;;;;;;13.50;10.80;;;;;;;24.95;62.18;99508.52;223584;181;137692;-61
2023/08/20 23:07:23;;;;;;;13.50;10.20;;;;;;;24.93;62.48;99510.30;223501;182;145748;-60
2023/08/20 23:12:26;;;;;;;15.50;10.70;;;;;;;24.85;62.83;99507.91;223374;178;138711;-62
2023/08/20 23:17:30;;;;;;;11.70;10.50;;;;;;;24.76;63.05;99508.38;223495;181;137557;-61
2023/08/20 23:22:33;;;;;;;11.50;10.40;;;;;;;24.70;62.83;99502.72;223482;182;146527;-61
2023/08/20 23:27:36;;;;;;;14.60;11.10;;;;;;;24.65;62.83;99497.46;223433;182;141010;-61